createdAt,value
2023-05-22T00:01:02.521Z,17.40
2023-05-22T00:05:25.192Z,17.10
2023-05-22T00:09:47.157Z,16.90
2023-05-22T00:14:09.646Z,16.80
2023-05-22T00:18:31.815Z,16.80
2023-05-22T00:22:54.834Z,16.70
2023-05-22T00:27:17.178Z,16.60
2023-05-22T00:31:39.508Z,16.50
2023-05-22T00:36:01.875Z,16.50
2023-05-22T00:40:23.936Z,16.50
2023-05-22T00:44:46.253Z,16.40
2023-05-22T00:49:08.286Z,16.40
2023-05-22T00:53:31.795Z,16.40
2023-05-22T00:57:54.440Z,16.40
2023-05-22T01:02:17.077Z,16.30
2023-05-22T01:06:39.525Z,16.20
2023-05-22T01:11:10.702Z,16.00
2023-05-22T01:15:41.476Z,15.80
2023-05-22T01:20:19.380Z,15.60
2023-05-22T01:25:34.718Z,15.50
2023-05-22T01:30:25.831Z,15.20
2023-05-22T01:34:51.075Z,14.90
2023-05-22T01:39:18.014Z,14.80
2023-05-22T01:43:42.760Z,14.60
2023-05-22T01:48:05.005Z,14.50
2023-05-22T01:52:56.279Z,14.30
2023-05-22T01:57:27.500Z,14.10
2023-05-22T02:01:53.118Z,14.00
2023-05-22T02:06:16.108Z,13.90
2023-05-22T02:10:41.703Z,13.80
2023-05-22T02:15:08.665Z,13.70
2023-05-22T02:19:31.138Z,13.60
2023-05-22T02:23:53.356Z,13.60
2023-05-22T02:28:16.117Z,13.50
2023-05-22T02:32:41.780Z,13.50
2023-05-22T02:37:04.043Z,13.50
2023-05-22T02:41:26.777Z,13.50
2023-05-22T02:45:49.241Z,13.50
2023-05-22T02:50:13.314Z,13.40
2023-05-22T02:54:35.535Z,13.20
2023-05-22T02:58:57.778Z,13.10
2023-05-22T03:03:20.366Z,13.00
2023-05-22T03:07:42.938Z,12.90
2023-05-22T03:12:05.776Z,12.80
2023-05-22T03:16:28.700Z,12.80
2023-05-22T03:20:51.130Z,12.80
2023-05-22T03:25:13.510Z,12.80
2023-05-22T03:29:36.567Z,12.80
2023-05-22T03:33:59.432Z,12.90
2023-05-22T03:38:21.736Z,13.00
2023-05-22T03:42:43.853Z,13.30
2023-05-22T03:47:06.177Z,13.80
2023-05-22T03:51:28.336Z,14.40
2023-05-22T03:55:50.407Z,15.20
2023-05-22T04:00:17.228Z,15.70
2023-05-22T04:04:40.220Z,15.80
2023-05-22T04:09:02.489Z,15.80
2023-05-22T04:13:27.150Z,16.20
2023-05-22T04:17:50.239Z,16.90
2023-05-22T04:22:12.277Z,17.10
2023-05-22T04:26:34.646Z,17.20
2023-05-22T04:30:59.903Z,17.50
2023-05-22T04:35:22.657Z,18.20
2023-05-22T04:39:46.257Z,18.90
2023-05-22T04:44:08.815Z,19.70
2023-05-22T04:48:30.720Z,20.80
2023-05-22T04:52:53.700Z,22.80
2023-05-22T04:57:17.425Z,24.60
2023-05-22T05:01:40.403Z,26.40
2023-05-22T05:06:03.895Z,28.40
2023-05-22T05:10:25.972Z,29.00
2023-05-22T05:14:48.108Z,30.20
2023-05-22T05:19:11.276Z,31.60
2023-05-22T05:23:33.177Z,33.10
2023-05-22T05:27:55.169Z,34.20
2023-05-22T05:32:18.858Z,35.10
2023-05-22T05:36:49.015Z,34.90
2023-05-22T05:41:12.752Z,34.90
2023-05-22T05:45:36.026Z,36.20
2023-05-22T05:49:58.358Z,37.00
2023-05-22T05:54:26.398Z,37.50
2023-05-22T05:58:51.759Z,38.90
2023-05-22T06:03:25.973Z,39.30
2023-05-22T06:08:06.361Z,38.70
2023-05-22T06:12:29.359Z,38.00
2023-05-22T06:16:51.379Z,37.10
2023-05-22T06:21:14.035Z,36.70
2023-05-22T06:25:36.303Z,36.30
2023-05-22T06:30:00.686Z,36.30
2023-05-22T06:34:28.211Z,36.70
2023-05-22T06:38:52.207Z,36.80
2023-05-22T06:43:43.476Z,36.40
2023-05-22T06:48:08.634Z,36.50
2023-05-22T06:52:39.141Z,36.20
2023-05-22T06:57:04.054Z,36.90
2023-05-22T07:01:29.489Z,38.30
2023-05-22T07:06:02.460Z,38.90
2023-05-22T07:10:27.911Z,38.10
2023-05-22T07:14:53.119Z,37.80
2023-05-22T07:19:18.165Z,38.80
2023-05-22T07:23:40.778Z,39.50
2023-05-22T07:28:09.126Z,39.20
2023-05-22T07:32:40.557Z,38.30
2023-05-22T07:37:14.472Z,37.20
2023-05-22T07:41:39.617Z,38.50
2023-05-22T07:46:06.317Z,39.40
2023-05-22T07:50:34.686Z,39.80
2023-05-22T07:54:57.176Z,40.90
2023-05-22T07:59:21.798Z,40.70
2023-05-22T08:03:44.733Z,40.50
2023-05-22T08:08:06.744Z,40.80
2023-05-22T08:12:28.779Z,42.50
2023-05-22T08:16:51.073Z,41.40
2023-05-22T08:21:13.231Z,41.30
2023-05-22T08:25:35.276Z,42.70
2023-05-22T08:29:57.642Z,41.50
2023-05-22T08:34:19.844Z,37.50
2023-05-22T08:38:42.164Z,34.90
2023-05-22T08:43:06.488Z,33.60
2023-05-22T08:47:30.433Z,33.30
2023-05-22T08:52:02.545Z,32.90
2023-05-22T08:56:26.805Z,32.10
2023-05-22T09:00:51.152Z,31.60
2023-05-22T09:05:13.716Z,32.40
2023-05-22T09:09:39.897Z,31.60
2023-05-22T09:14:10.856Z,32.20
2023-05-22T09:18:32.716Z,31.90
2023-05-22T09:22:55.004Z,32.20
2023-05-22T09:27:16.997Z,31.90
2023-05-22T09:31:44.476Z,32.00
2023-05-22T09:36:10.420Z,32.20
2023-05-22T09:40:37.797Z,31.60
2023-05-22T09:45:07.969Z,31.90
2023-05-22T09:49:29.942Z,30.50
2023-05-22T09:53:54.678Z,30.40
2023-05-22T09:58:20.395Z,31.00
2023-05-22T10:02:48.441Z,31.80
2023-05-22T10:07:11.758Z,31.40
2023-05-22T10:11:35.539Z,31.80
2023-05-22T10:15:58.558Z,31.10
2023-05-22T10:20:21.019Z,29.90
2023-05-22T10:24:43.599Z,29.50
2023-05-22T10:29:18.924Z,29.40
2023-05-22T10:33:51.613Z,29.40
2023-05-22T10:39:05.422Z,28.80
2023-05-22T10:43:33.844Z,29.40
2023-05-22T10:48:11.968Z,29.80
2023-05-22T10:52:34.429Z,30.90
2023-05-22T10:57:14.634Z,30.20
2023-05-22T11:01:38.567Z,30.40
2023-05-22T11:06:08.005Z,30.40
2023-05-22T11:10:56.422Z,29.50
2023-05-22T11:15:19.321Z,29.90
2023-05-22T11:19:42.492Z,29.30
2023-05-22T11:24:07.783Z,28.40
2023-05-22T11:28:31.937Z,28.50
2023-05-22T11:32:54.786Z,28.00
2023-05-22T11:37:19.284Z,27.70
2023-05-22T11:41:41.721Z,27.10
2023-05-22T11:46:11.553Z,26.90
2023-05-22T11:50:42.163Z,26.40
2023-05-22T11:55:06.202Z,26.70
2023-05-22T11:59:28.800Z,26.50
2023-05-22T12:03:50.918Z,26.50
2023-05-22T12:08:13.083Z,26.30
2023-05-22T12:12:35.186Z,26.20
2023-05-22T12:16:59.119Z,26.20
2023-05-22T12:21:22.042Z,26.30
2023-05-22T12:25:43.935Z,26.10
2023-05-22T12:30:11.288Z,26.00
2023-05-22T12:34:45.803Z,25.60
2023-05-22T12:39:12.224Z,25.30
2023-05-22T12:43:34.588Z,25.30
2023-05-22T12:47:56.601Z,25.30
2023-05-22T12:52:18.872Z,25.30
2023-05-22T12:56:41.237Z,25.40
2023-05-22T13:01:03.651Z,25.60
2023-05-22T13:05:25.629Z,25.70
2023-05-22T13:09:47.618Z,26.00
2023-05-22T13:14:09.920Z,26.30
2023-05-22T13:18:32.067Z,26.70
2023-05-22T13:22:55.203Z,26.60
2023-05-22T13:27:19.235Z,26.30
2023-05-22T13:31:41.413Z,26.60
2023-05-22T13:36:05.236Z,26.60
2023-05-22T13:40:28.386Z,26.60
2023-05-22T13:44:51.141Z,26.80
2023-05-22T13:49:13.459Z,26.90
2023-05-22T13:53:35.918Z,26.60
2023-05-22T13:57:58.134Z,26.50
2023-05-22T14:02:24.341Z,26.30
2023-05-22T14:06:47.180Z,26.70
2023-05-22T14:11:09.449Z,26.90
2023-05-22T14:15:32.242Z,26.80
2023-05-22T14:19:54.417Z,26.80
2023-05-22T14:24:17.123Z,26.80
2023-05-22T14:28:39.416Z,26.40
2023-05-22T14:33:01.957Z,26.20
2023-05-22T14:37:24.234Z,26.30
2023-05-22T14:41:46.500Z,26.40
2023-05-22T14:46:09.567Z,26.50
2023-05-22T14:50:31.767Z,26.60
2023-05-22T14:54:54.024Z,26.60
2023-05-22T14:59:16.383Z,26.60
2023-05-22T15:03:38.778Z,26.50
2023-05-22T15:08:00.960Z,26.40
2023-05-22T15:12:23.341Z,26.30
2023-05-22T15:16:47.238Z,26.20
2023-05-22T15:21:09.340Z,26.20
2023-05-22T15:25:34.017Z,26.20
2023-05-22T15:29:57.052Z,26.30
2023-05-22T15:34:19.417Z,26.20
2023-05-22T15:38:42.836Z,26.20
2023-05-22T15:43:05.068Z,26.10
2023-05-22T15:47:27.533Z,25.90
2023-05-22T15:51:49.775Z,25.60
2023-05-22T15:56:11.862Z,25.50
2023-05-22T16:00:41.441Z,25.50
2023-05-22T16:05:03.939Z,25.30
2023-05-22T16:09:25.936Z,25.30
2023-05-22T16:13:48.136Z,25.30
2023-05-22T16:18:11.828Z,25.30
2023-05-22T16:22:47.308Z,25.20
2023-05-22T16:27:11.244Z,25.00
2023-05-22T16:31:35.873Z,25.00
2023-05-22T16:35:58.435Z,24.90
2023-05-22T16:40:20.659Z,24.80
2023-05-22T16:44:42.602Z,24.70
2023-05-22T16:49:04.918Z,24.60
2023-05-22T16:53:27.952Z,24.40
2023-05-22T16:57:50.201Z,24.40
2023-05-22T17:02:12.464Z,24.40
2023-05-22T17:06:35.723Z,24.30
2023-05-22T17:10:58.197Z,24.30
2023-05-22T17:15:20.660Z,24.20
2023-05-22T17:19:43.440Z,24.20
2023-05-22T17:24:05.838Z,24.00
2023-05-22T17:28:28.086Z,23.80
2023-05-22T17:32:53.564Z,23.70
2023-05-22T17:37:15.897Z,23.40
2023-05-22T17:41:38.527Z,23.20
2023-05-22T17:46:01.734Z,23.10
2023-05-22T17:50:24.185Z,22.90
2023-05-22T17:54:47.093Z,22.70
2023-05-22T17:59:09.192Z,22.50
2023-05-22T18:03:31.882Z,22.30
2023-05-22T18:07:54.216Z,22.00
2023-05-22T18:12:31.300Z,21.90
2023-05-22T18:16:54.000Z,21.70
2023-05-22T18:21:16.204Z,21.60
2023-05-22T18:25:38.637Z,21.50
2023-05-22T18:30:00.816Z,21.40
2023-05-22T18:34:23.074Z,21.30
2023-05-22T18:38:45.440Z,21.10
2023-05-22T18:43:07.362Z,21.00
2023-05-22T18:47:29.667Z,20.80
2023-05-22T18:51:51.977Z,20.60
2023-05-22T18:56:14.845Z,20.50
2023-05-22T19:00:39.470Z,20.30
2023-05-22T19:05:01.732Z,20.10
2023-05-22T19:09:24.963Z,20.00
2023-05-22T19:13:47.341Z,19.90
2023-05-22T19:18:09.260Z,19.80
2023-05-22T19:22:32.108Z,19.70
2023-05-22T19:26:54.386Z,19.60
2023-05-22T19:31:18.565Z,19.60
2023-05-22T19:35:41.277Z,19.60
2023-05-22T19:40:05.403Z,19.50
2023-05-22T19:44:28.037Z,19.40
2023-05-22T19:48:50.210Z,19.40
2023-05-22T19:53:12.439Z,19.40
2023-05-22T19:57:34.479Z,19.40
2023-05-22T20:01:56.687Z,19.30
2023-05-22T20:06:19.206Z,19.40
2023-05-22T20:10:41.674Z,19.40
2023-05-22T20:15:04.751Z,19.40
2023-05-22T20:19:28.819Z,19.40
2023-05-22T20:23:51.624Z,19.40
2023-05-22T20:28:13.716Z,19.40
2023-05-22T20:32:35.945Z,19.40
2023-05-22T20:36:58.635Z,19.40
2023-05-22T20:41:23.009Z,19.40
2023-05-22T20:45:46.005Z,19.30
2023-05-22T20:50:09.204Z,19.30
2023-05-22T20:54:34.660Z,19.30
2023-05-22T20:58:57.178Z,19.30
2023-05-22T21:03:19.588Z,19.20
2023-05-22T21:07:41.922Z,19.20
2023-05-22T21:12:04.215Z,19.20
2023-05-22T21:16:26.228Z,19.20
2023-05-22T21:20:48.455Z,19.10
2023-05-22T21:25:10.885Z,19.10
2023-05-22T21:29:35.863Z,19.00
2023-05-22T21:33:58.128Z,18.90
2023-05-22T21:38:20.198Z,18.80
2023-05-22T21:42:46.962Z,18.60
2023-05-22T21:47:09.417Z,18.50
2023-05-22T21:51:32.262Z,18.50
2023-05-22T21:55:54.562Z,18.40
2023-05-22T22:00:17.481Z,18.40
2023-05-22T22:04:39.265Z,18.30
2023-05-22T22:09:03.632Z,18.20
2023-05-22T22:13:25.560Z,18.00
2023-05-22T22:17:47.814Z,17.70
2023-05-22T22:22:12.620Z,17.50
2023-05-22T22:26:35.817Z,17.40
2023-05-22T22:30:57.862Z,17.20
2023-05-22T22:35:20.303Z,17.10
2023-05-22T22:39:42.675Z,17.00
2023-05-22T22:44:04.768Z,16.80
2023-05-22T22:48:26.945Z,16.40
2023-05-22T22:52:48.890Z,16.10
2023-05-22T22:57:11.060Z,15.80
2023-05-22T23:01:33.359Z,15.30
2023-05-22T23:05:55.539Z,14.90
2023-05-22T23:10:17.841Z,14.90
2023-05-22T23:14:39.920Z,14.80
2023-05-22T23:19:05.950Z,14.60
2023-05-22T23:23:28.279Z,14.60
2023-05-22T23:27:50.798Z,14.60
2023-05-22T23:32:14.700Z,14.60
2023-05-22T23:36:37.135Z,14.70
2023-05-22T23:40:59.314Z,14.70
2023-05-22T23:45:21.634Z,14.50
2023-05-22T23:49:43.936Z,14.40
2023-05-22T23:54:06.388Z,14.40
2023-05-22T23:58:29.982Z,14.40
